createdAt,value
2019-06-10T00:01:15.454Z,21.20
2019-06-10T00:03:46.274Z,21.10
2019-06-10T00:06:16.939Z,21.10
2019-06-10T00:08:50.488Z,21.00
2019-06-10T00:11:21.420Z,21.10
2019-06-10T00:13:52.175Z,21.00
2019-06-10T00:16:22.876Z,21.10
2019-06-10T00:18:53.539Z,21.10
2019-06-10T00:21:24.206Z,21.00
2019-06-10T00:23:54.971Z,21.00
2019-06-10T00:26:25.584Z,21.10
2019-06-10T00:28:56.445Z,21.00
2019-06-10T00:31:27.161Z,21.10
2019-06-10T00:33:59.265Z,21.00
2019-06-10T00:36:30.895Z,21.00
2019-06-10T00:39:04.059Z,21.00
2019-06-10T00:41:34.989Z,21.00
2019-06-10T00:44:06.974Z,21.00
2019-06-10T00:46:38.129Z,21.00
2019-06-10T00:49:12.089Z,21.00
2019-06-10T00:51:42.156Z,21.00
2019-06-10T00:54:15.489Z,21.00
2019-06-10T00:56:45.254Z,21.10
2019-06-10T00:59:15.881Z,21.00
2019-06-10T01:01:47.224Z,21.00
2019-06-10T01:04:17.896Z,20.90
2019-06-10T01:06:51.228Z,21.00
2019-06-10T01:09:21.883Z,21.00
2019-06-10T01:11:53.359Z,20.90
2019-06-10T01:14:24.053Z,20.90
2019-06-10T01:16:55.560Z,20.80
2019-06-10T01:19:26.254Z,20.80
2019-06-10T01:21:57.090Z,20.80
2019-06-10T01:24:27.758Z,20.80
2019-06-10T01:26:58.460Z,20.80
2019-06-10T01:29:31.307Z,20.70
2019-06-10T01:32:03.251Z,20.70
2019-06-10T01:34:33.866Z,20.80
2019-06-10T01:37:04.539Z,20.80
2019-06-10T01:39:35.309Z,20.70
2019-06-10T01:42:06.226Z,20.70
2019-06-10T01:44:36.896Z,20.70
2019-06-10T01:47:08.697Z,20.70
2019-06-10T01:49:41.213Z,20.70
2019-06-10T01:52:13.939Z,20.80
2019-06-10T01:54:44.557Z,20.70
2019-06-10T01:57:15.750Z,20.70
2019-06-10T01:59:47.572Z,20.70
2019-06-10T02:02:23.907Z,20.70
2019-06-10T02:04:54.959Z,20.60
2019-06-10T02:07:25.779Z,20.60
2019-06-10T02:09:57.567Z,20.50
2019-06-10T02:12:28.238Z,20.50
2019-06-10T02:15:01.312Z,20.50
2019-06-10T02:17:32.033Z,20.50
2019-06-10T02:20:03.635Z,20.50
2019-06-10T02:22:34.298Z,20.50
2019-06-10T02:25:05.589Z,20.50
2019-06-10T02:27:36.218Z,20.40
2019-06-10T02:30:13.654Z,20.40
2019-06-10T02:32:42.810Z,20.40
2019-06-10T02:35:18.061Z,20.30
2019-06-10T02:37:45.242Z,20.30
2019-06-10T02:40:19.311Z,20.30
2019-06-10T02:42:53.808Z,20.30
2019-06-10T02:45:32.015Z,20.20
2019-06-10T02:47:55.676Z,20.30
2019-06-10T02:50:57.800Z,20.20
2019-06-10T02:53:31.228Z,20.20
2019-06-10T02:56:04.208Z,20.20
2019-06-10T02:58:39.178Z,20.10
2019-06-10T03:01:07.428Z,20.10
2019-06-10T03:03:44.619Z,20.10
2019-06-10T03:06:14.440Z,20.00
2019-06-10T03:08:43.980Z,20.00
2019-06-10T03:11:16.410Z,20.00
2019-06-10T03:13:47.167Z,20.00
2019-06-10T03:16:28.200Z,20.00
2019-06-10T03:18:58.904Z,19.90
2019-06-10T03:21:32.304Z,19.90
2019-06-10T03:24:02.829Z,19.90
2019-06-10T03:26:33.574Z,19.90
2019-06-10T03:29:04.547Z,19.80
2019-06-10T03:31:41.457Z,19.70
2019-06-10T03:34:07.937Z,19.80
2019-06-10T03:36:39.171Z,19.70
2019-06-10T03:39:13.117Z,19.70
2019-06-10T03:41:42.955Z,19.70
2019-06-10T03:44:13.603Z,19.80
2019-06-10T03:46:44.265Z,19.80
2019-06-10T03:49:15.056Z,19.80
2019-06-10T03:51:45.760Z,19.70
2019-06-10T03:54:17.168Z,19.70
2019-06-10T03:56:47.846Z,19.80
2019-06-10T03:59:19.239Z,19.80
2019-06-10T04:01:49.936Z,19.80
2019-06-10T04:04:23.430Z,19.80
2019-06-10T04:06:53.324Z,19.80
2019-06-10T04:09:25.459Z,19.80
2019-06-10T04:11:57.337Z,19.80
2019-06-10T04:14:28.517Z,19.80
2019-06-10T04:16:59.885Z,19.70
2019-06-10T04:19:32.572Z,19.70
2019-06-10T04:22:02.930Z,19.70
2019-06-10T04:24:33.625Z,19.60
2019-06-10T04:27:04.349Z,19.60
2019-06-10T04:29:35.008Z,19.60
2019-06-10T04:32:06.050Z,19.40
2019-06-10T04:34:36.713Z,19.50
2019-06-10T04:37:07.512Z,19.40
2019-06-10T04:39:39.146Z,19.50
2019-06-10T04:42:09.965Z,19.50
2019-06-10T04:44:42.384Z,19.50
2019-06-10T04:47:13.146Z,19.50
2019-06-10T04:49:43.793Z,19.50
2019-06-10T04:52:33.580Z,19.50
2019-06-10T04:55:04.363Z,19.50
2019-06-10T04:57:45.145Z,19.60
2019-06-10T05:00:28.509Z,19.50
2019-06-10T05:03:08.341Z,19.40
2019-06-10T05:05:39.298Z,19.40
2019-06-10T05:08:15.097Z,19.30
2019-06-10T05:10:45.928Z,19.30
2019-06-10T05:13:16.589Z,19.20
2019-06-10T05:15:52.575Z,19.30
2019-06-10T05:18:25.929Z,19.40
2019-06-10T05:20:58.775Z,19.50
2019-06-10T05:23:29.944Z,19.60
2019-06-10T05:26:02.977Z,19.70
2019-06-10T05:28:34.342Z,19.80
2019-06-10T05:31:05.275Z,20.00
2019-06-10T05:33:35.932Z,20.10
2019-06-10T05:36:06.679Z,20.30
2019-06-10T05:38:37.423Z,20.60
2019-06-10T05:41:08.503Z,20.80
2019-06-10T05:43:39.308Z,21.00
2019-06-10T05:46:10.074Z,21.40
2019-06-10T05:48:43.744Z,21.60
2019-06-10T05:51:13.992Z,22.00
2019-06-10T05:53:46.425Z,22.50
2019-06-10T05:56:17.201Z,22.60
2019-06-10T05:58:47.886Z,22.60
2019-06-10T06:01:18.502Z,23.00
2019-06-10T06:03:49.215Z,23.30
2019-06-10T06:06:19.895Z,23.50
2019-06-10T06:08:50.567Z,23.50
2019-06-10T06:11:23.174Z,23.30
2019-06-10T06:13:53.672Z,23.30
2019-06-10T06:16:25.628Z,23.30
2019-06-10T06:18:56.452Z,23.30
2019-06-10T06:21:32.407Z,23.30
2019-06-10T06:24:03.651Z,23.40
2019-06-10T06:26:37.415Z,23.80
2019-06-10T06:29:05.498Z,23.90
2019-06-10T06:31:37.643Z,23.90
2019-06-10T06:34:08.394Z,24.10
2019-06-10T06:36:42.104Z,24.20
2019-06-10T06:39:12.864Z,24.10
2019-06-10T06:41:44.005Z,23.70
2019-06-10T06:44:14.755Z,23.70
2019-06-10T06:46:45.527Z,23.80
2019-06-10T06:49:16.303Z,24.00
2019-06-10T06:51:55.123Z,24.40
2019-06-10T06:54:22.995Z,24.90
2019-06-10T06:56:53.910Z,25.20
2019-06-10T06:59:24.594Z,25.50
2019-06-10T07:01:55.266Z,25.30
2019-06-10T07:04:26.079Z,25.20
2019-06-10T07:06:58.000Z,25.30
2019-06-10T07:09:33.108Z,25.50
2019-06-10T07:12:05.919Z,25.40
2019-06-10T07:14:39.296Z,25.50
2019-06-10T07:17:12.589Z,25.50
2019-06-10T07:19:45.748Z,25.30
2019-06-10T07:22:16.413Z,25.30
2019-06-10T07:24:47.923Z,25.20
2019-06-10T07:27:22.658Z,25.10
2019-06-10T07:29:53.204Z,25.00
2019-06-10T07:32:23.941Z,25.00
2019-06-10T07:34:54.670Z,25.00
2019-06-10T07:37:25.425Z,25.30
2019-06-10T07:39:56.103Z,25.30
2019-06-10T07:42:26.821Z,25.70
2019-06-10T07:44:57.631Z,25.80
2019-06-10T07:47:28.485Z,26.20
2019-06-10T07:49:59.977Z,26.50
2019-06-10T07:52:32.802Z,26.90
2019-06-10T07:55:03.402Z,26.70
2019-06-10T07:57:34.773Z,26.50
2019-06-10T08:00:07.297Z,26.50
2019-06-10T08:02:37.938Z,26.60
2019-06-10T08:05:09.538Z,26.90
2019-06-10T08:07:41.503Z,27.50
2019-06-10T08:10:14.857Z,28.00
2019-06-10T08:12:48.350Z,28.30
2019-06-10T08:15:19.481Z,28.20
2019-06-10T08:17:52.906Z,28.30
2019-06-10T08:20:43.837Z,28.00
2019-06-10T08:23:17.484Z,28.40
2019-06-10T08:25:53.670Z,28.40
2019-06-10T08:28:23.024Z,28.20
2019-06-10T08:30:53.816Z,28.40
2019-06-10T08:33:24.569Z,28.50
2019-06-10T08:36:00.156Z,28.60
2019-06-10T08:38:27.726Z,28.90
2019-06-10T08:40:58.435Z,28.70
2019-06-10T08:43:30.201Z,28.80
2019-06-10T08:46:02.529Z,29.10
2019-06-10T08:48:33.481Z,28.90
2019-06-10T08:51:04.231Z,28.90
2019-06-10T08:53:34.979Z,29.00
2019-06-10T08:56:06.154Z,29.20
2019-06-10T08:58:38.474Z,29.30
2019-06-10T09:01:12.691Z,29.10
2019-06-10T09:03:47.432Z,29.30
2019-06-10T09:06:17.575Z,29.60
2019-06-10T09:08:51.268Z,29.60
2019-06-10T09:11:23.586Z,29.20
2019-06-10T09:13:53.494Z,29.00
2019-06-10T09:16:26.531Z,29.20
2019-06-10T09:18:58.546Z,29.00
2019-06-10T09:21:29.198Z,28.80
2019-06-10T09:24:03.800Z,28.50
2019-06-10T09:26:33.947Z,28.70
2019-06-10T09:29:08.477Z,29.20
2019-06-10T09:31:41.576Z,29.50
2019-06-10T09:34:13.013Z,29.50
2019-06-10T09:36:49.109Z,29.50
2019-06-10T09:39:16.704Z,29.30
2019-06-10T09:41:54.103Z,29.00
2019-06-10T09:44:19.833Z,28.70
2019-06-10T09:46:56.461Z,28.80
2019-06-10T09:49:29.107Z,29.00
2019-06-10T09:52:03.369Z,29.10
2019-06-10T09:54:34.127Z,29.30
2019-06-10T09:57:04.817Z,29.80
2019-06-10T09:59:35.609Z,30.20
2019-06-10T10:02:07.430Z,30.40
2019-06-10T10:04:40.939Z,30.50
2019-06-10T10:07:12.295Z,30.60
2019-06-10T10:09:48.537Z,30.60
2019-06-10T10:12:18.088Z,30.90
2019-06-10T10:14:51.416Z,31.10
2019-06-10T10:17:23.261Z,31.10
2019-06-10T10:19:56.909Z,31.20
2019-06-10T10:22:26.751Z,31.40
2019-06-10T10:25:02.815Z,31.50
2019-06-10T10:27:32.432Z,31.70
2019-06-10T10:30:03.991Z,31.80
2019-06-10T10:32:34.942Z,31.80
2019-06-10T10:35:06.236Z,31.80
2019-06-10T10:37:36.986Z,31.60
2019-06-10T10:40:08.602Z,31.40
2019-06-10T10:42:47.698Z,31.30
2019-06-10T10:45:13.325Z,31.40
2019-06-10T10:47:45.032Z,31.50
2019-06-10T10:50:16.865Z,31.70
2019-06-10T10:52:49.838Z,31.90
2019-06-10T10:55:22.300Z,32.20
2019-06-10T10:57:55.694Z,32.80
2019-06-10T11:00:36.613Z,32.80
2019-06-10T11:03:04.269Z,32.90
2019-06-10T11:05:38.552Z,32.70
2019-06-10T11:08:13.465Z,32.70
2019-06-10T11:10:48.187Z,32.50
2019-06-10T11:13:23.306Z,32.40
2019-06-10T11:15:56.446Z,32.30
2019-06-10T11:18:26.601Z,32.40
2019-06-10T11:21:02.509Z,32.40
2019-06-10T11:23:33.694Z,32.20
2019-06-10T11:26:05.381Z,32.10
2019-06-10T11:28:42.811Z,32.10
2019-06-10T11:31:14.226Z,32.30
2019-06-10T11:33:48.984Z,32.00
2019-06-10T11:36:22.740Z,31.80
2019-06-10T11:38:55.579Z,31.90
2019-06-10T11:41:25.543Z,31.80
2019-06-10T11:43:59.011Z,31.70
2019-06-10T11:46:28.650Z,31.70
2019-06-10T11:48:59.419Z,31.50
2019-06-10T11:51:30.176Z,31.10
2019-06-10T11:54:03.564Z,31.00
2019-06-10T11:56:34.393Z,30.90
2019-06-10T11:59:09.592Z,30.80
2019-06-10T12:01:39.400Z,30.80
2019-06-10T12:04:12.843Z,30.80
2019-06-10T12:06:43.985Z,30.70
2019-06-10T12:09:14.835Z,30.70
2019-06-10T12:11:45.885Z,30.80
2019-06-10T12:14:16.730Z,30.60
2019-06-10T12:19:24.057Z,30.60
2019-06-10T12:21:59.266Z,30.50
2019-06-10T12:24:28.271Z,30.40
2019-06-10T12:27:05.325Z,30.40
2019-06-10T12:29:38.013Z,30.20
2019-06-10T12:32:08.820Z,30.00
2019-06-10T12:34:39.504Z,30.00
2019-06-10T12:37:15.523Z,29.80
2019-06-10T12:39:44.087Z,29.60
2019-06-10T12:42:16.135Z,29.30
2019-06-10T12:44:46.888Z,29.20
2019-06-10T12:47:17.670Z,28.80
2019-06-10T12:49:48.355Z,28.40
2019-06-10T12:52:19.084Z,28.20
2019-06-10T12:54:50.476Z,28.00
2019-06-10T12:57:23.010Z,27.70
2019-06-10T12:59:54.080Z,27.60
2019-06-10T13:02:31.232Z,27.40
2019-06-10T13:04:59.645Z,27.20
2019-06-10T13:07:32.463Z,27.10
2019-06-10T13:10:04.276Z,27.10
2019-06-10T13:12:34.962Z,27.20
2019-06-10T13:15:07.467Z,27.20
2019-06-10T13:17:38.941Z,27.10
2019-06-10T13:20:13.433Z,27.10
2019-06-10T13:22:43.227Z,27.20
2019-06-10T13:25:15.197Z,27.50
2019-06-10T13:27:45.900Z,27.60
2019-06-10T13:30:16.855Z,27.90
2019-06-10T13:32:47.529Z,27.90
2019-06-10T13:35:18.390Z,28.10
2019-06-10T13:37:49.239Z,28.20
2019-06-10T13:40:22.711Z,28.20
2019-06-10T13:42:54.084Z,28.10
2019-06-10T13:45:26.233Z,27.90
2019-06-10T13:47:58.771Z,27.90
2019-06-10T13:50:32.865Z,28.00
2019-06-10T13:53:06.537Z,28.00
2019-06-10T13:55:36.906Z,28.00
2019-06-10T13:58:09.606Z,28.50
2019-06-10T14:00:45.986Z,29.60
2019-06-10T14:03:16.181Z,30.30
2019-06-10T14:05:45.810Z,31.10
2019-06-10T14:08:16.517Z,32.50
2019-06-10T14:10:47.490Z,33.30
2019-06-10T14:13:18.152Z,34.00
2019-06-10T14:15:48.840Z,34.10
2019-06-10T14:18:19.707Z,33.90
2019-06-10T14:20:53.214Z,34.30
2019-06-10T14:23:23.231Z,33.90
2019-06-10T14:25:53.978Z,34.10
2019-06-10T14:28:39.912Z,34.40
2019-06-10T14:30:57.135Z,34.70
2019-06-10T14:33:34.243Z,34.60
2019-06-10T14:36:05.877Z,34.70
2019-06-10T14:38:37.559Z,35.10
2019-06-10T14:41:08.679Z,35.10
2019-06-10T14:43:39.521Z,34.70
2019-06-10T14:46:13.881Z,34.70
2019-06-10T14:48:44.077Z,34.70
2019-06-10T14:51:22.915Z,33.90
2019-06-10T14:53:54.295Z,33.30
2019-06-10T14:56:25.191Z,33.00
2019-06-10T14:58:55.871Z,33.00
2019-06-10T15:01:26.556Z,32.70
2019-06-10T15:03:57.281Z,32.20
2019-06-10T15:06:28.272Z,32.00
2019-06-10T15:08:59.027Z,32.30
2019-06-10T15:11:32.136Z,32.30
2019-06-10T15:14:03.896Z,32.30
2019-06-10T15:16:34.692Z,32.00
2019-06-10T15:19:14.757Z,31.90
2019-06-10T15:21:39.205Z,32.00
2019-06-10T15:24:10.099Z,31.90
2019-06-10T15:26:42.208Z,31.90
2019-06-10T15:29:15.596Z,31.90
2019-06-10T15:31:45.689Z,31.90
2019-06-10T15:34:18.089Z,32.10
2019-06-10T15:36:48.824Z,32.20
2019-06-10T15:39:23.429Z,32.30
2019-06-10T15:41:52.344Z,32.30
2019-06-10T15:44:41.940Z,32.30
2019-06-10T15:46:56.719Z,32.50
2019-06-10T15:49:27.407Z,32.50
2019-06-10T15:52:00.234Z,32.20
2019-06-10T15:54:33.303Z,32.50
2019-06-10T15:57:05.039Z,32.30
2019-06-10T15:59:37.888Z,32.20
2019-06-10T16:02:08.860Z,32.40
2019-06-10T16:04:39.655Z,32.20
2019-06-10T16:07:14.653Z,32.10
2019-06-10T16:09:45.286Z,32.00
2019-06-10T16:12:17.669Z,31.80
2019-06-10T16:14:48.851Z,31.90
2019-06-10T16:17:19.611Z,31.80
2019-06-10T16:19:52.811Z,31.80
2019-06-10T16:22:24.939Z,31.60
2019-06-10T16:24:55.556Z,31.50
2019-06-10T16:27:43.515Z,31.20
2019-06-10T16:29:58.746Z,31.30
2019-06-10T16:32:29.534Z,31.20
2019-06-10T16:35:00.370Z,31.30
2019-06-10T16:37:32.780Z,31.00
2019-06-10T16:40:03.784Z,30.90
2019-06-10T16:42:35.181Z,30.90
2019-06-10T16:45:07.735Z,30.90
2019-06-10T16:47:45.015Z,30.90
2019-06-10T16:50:17.229Z,31.00
2019-06-10T16:52:48.524Z,31.00
2019-06-10T16:55:27.629Z,30.80
2019-06-10T16:58:10.359Z,30.70
2019-06-10T17:00:43.248Z,30.70
2019-06-10T17:03:15.866Z,30.90
2019-06-10T17:05:47.000Z,30.70
2019-06-10T17:08:25.953Z,30.60
2019-06-10T17:10:58.347Z,30.50
2019-06-10T17:13:35.949Z,30.40
2019-06-10T17:16:13.221Z,30.40
2019-06-10T17:18:44.609Z,30.40
2019-06-10T17:21:16.875Z,30.40
2019-06-10T17:23:47.616Z,30.30
2019-06-10T17:26:22.693Z,30.30
2019-06-10T17:28:52.158Z,30.60
2019-06-10T17:31:26.863Z,30.40
2019-06-10T17:33:55.416Z,30.10
2019-06-10T17:36:29.250Z,29.90
2019-06-10T17:38:58.550Z,29.80
2019-06-10T17:41:30.600Z,29.60
2019-06-10T17:44:02.750Z,29.60
2019-06-10T17:46:35.205Z,29.60
2019-06-10T17:49:06.284Z,29.50
2019-06-10T17:51:37.628Z,29.50
2019-06-10T17:54:08.397Z,29.40
2019-06-10T17:56:39.476Z,29.40
2019-06-10T17:59:12.671Z,29.30
2019-06-10T18:01:44.583Z,29.10
2019-06-10T18:04:15.326Z,29.10
2019-06-10T18:06:47.450Z,29.10
2019-06-10T18:09:18.690Z,29.00
2019-06-10T18:11:49.933Z,28.90
2019-06-10T18:14:22.756Z,28.80
2019-06-10T18:16:53.068Z,28.90
2019-06-10T18:19:24.244Z,28.70
2019-06-10T18:21:55.020Z,28.70
2019-06-10T18:24:27.300Z,28.50
2019-06-10T18:26:58.199Z,28.40
2019-06-10T18:29:29.219Z,28.40
2019-06-10T18:32:00.016Z,28.20
2019-06-10T18:34:32.461Z,28.20
2019-06-10T18:37:03.186Z,28.20
2019-06-10T18:39:33.843Z,28.10
2019-06-10T18:42:04.881Z,28.00
2019-06-10T18:44:37.399Z,27.80
2019-06-10T18:47:08.495Z,27.70
2019-06-10T18:49:43.276Z,27.60
2019-06-10T18:52:17.025Z,27.50
2019-06-10T18:54:47.862Z,27.40
2019-06-10T18:57:18.581Z,27.30
2019-06-10T18:59:49.288Z,27.20
2019-06-10T19:02:22.507Z,27.20
2019-06-10T19:04:59.200Z,27.00
2019-06-10T19:07:31.289Z,26.90
2019-06-10T19:10:02.451Z,26.90
2019-06-10T19:12:34.083Z,26.70
2019-06-10T19:15:06.445Z,26.60
2019-06-10T19:17:39.824Z,26.50
2019-06-10T19:20:13.077Z,26.40
2019-06-10T19:22:44.811Z,26.20
2019-06-10T19:25:15.788Z,26.10
2019-06-10T19:27:47.291Z,26.10
2019-06-10T19:30:20.276Z,25.90
2019-06-10T19:32:53.268Z,25.90
2019-06-10T19:35:24.278Z,25.70
2019-06-10T19:37:55.082Z,25.70
2019-06-10T19:40:25.838Z,25.60
2019-06-10T19:42:56.530Z,25.60
2019-06-10T19:45:27.249Z,25.40
2019-06-10T19:47:57.970Z,25.30
2019-06-10T19:50:33.069Z,25.20
2019-06-10T19:53:04.728Z,25.20
2019-06-10T19:55:35.429Z,25.20
2019-06-10T19:58:06.105Z,25.10
2019-06-10T20:00:37.504Z,25.00
2019-06-10T20:03:08.558Z,24.90
2019-06-10T20:05:44.918Z,24.90
2019-06-10T20:08:14.479Z,24.90
2019-06-10T20:10:45.231Z,24.80
2019-06-10T20:13:16.027Z,24.70
2019-06-10T20:16:05.900Z,24.70
2019-06-10T20:18:37.867Z,24.60
2019-06-10T20:21:08.865Z,24.40
2019-06-10T20:23:44.535Z,24.30
2019-06-10T20:26:14.216Z,24.20
2019-06-10T20:28:46.399Z,24.10
2019-06-10T20:31:22.145Z,24.10
2019-06-10T20:33:52.960Z,24.00
2019-06-10T20:36:27.088Z,24.00
2019-06-10T20:38:56.638Z,23.90
2019-06-10T20:41:27.284Z,23.80
2019-06-10T20:43:58.077Z,23.80
2019-06-10T20:46:28.769Z,23.70
2019-06-10T20:48:59.652Z,23.60
2019-06-10T20:51:40.561Z,23.60
2019-06-10T20:54:04.374Z,23.60
2019-06-10T20:56:35.065Z,23.50
2019-06-10T20:59:06.784Z,23.50
2019-06-10T21:01:38.823Z,23.50
2019-06-10T21:04:09.902Z,23.50
2019-06-10T21:06:43.458Z,23.40
2019-06-10T21:09:14.163Z,23.40
2019-06-10T21:11:47.018Z,23.50
2019-06-10T21:14:17.250Z,23.60
2019-06-10T21:16:48.366Z,23.60
2019-06-10T21:19:19.734Z,23.70
2019-06-10T21:21:54.503Z,23.80
2019-06-10T21:24:23.653Z,23.80
2019-06-10T21:26:54.991Z,23.90
2019-06-10T21:29:26.078Z,24.00
2019-06-10T21:31:59.536Z,23.90
2019-06-10T21:34:32.589Z,23.90
2019-06-10T21:37:04.579Z,23.80
2019-06-10T21:39:43.783Z,23.80
2019-06-10T21:42:13.334Z,23.80
2019-06-10T21:44:45.898Z,23.70
2019-06-10T21:47:18.431Z,23.80
2019-06-10T21:49:50.325Z,23.80
2019-06-10T21:52:22.578Z,23.70
2019-06-10T21:54:53.347Z,23.80
2019-06-10T21:57:25.815Z,23.70
2019-06-10T21:59:58.018Z,23.70
2019-06-10T22:02:32.361Z,23.70
2019-06-10T22:05:06.535Z,23.70
2019-06-10T22:07:37.377Z,23.70
2019-06-10T22:10:08.690Z,23.70
2019-06-10T22:12:42.161Z,23.60
2019-06-10T22:15:14.044Z,23.60
2019-06-10T22:17:44.732Z,23.60
2019-06-10T22:20:15.960Z,23.50
2019-06-10T22:22:46.659Z,23.40
2019-06-10T22:25:17.328Z,22.40
2019-06-10T22:27:48.027Z,20.70
2019-06-10T22:30:18.824Z,19.10
2019-06-10T22:32:54.928Z,18.40
2019-06-10T22:35:23.494Z,18.00
2019-06-10T22:37:55.444Z,17.70
2019-06-10T22:40:26.711Z,17.60
2019-06-10T22:42:57.698Z,17.40
2019-06-10T22:45:29.168Z,17.40
2019-06-10T22:48:02.794Z,17.40
2019-06-10T22:50:33.069Z,17.30
2019-06-10T22:53:04.334Z,17.30
2019-06-10T22:55:35.043Z,17.40
2019-06-10T22:58:06.349Z,17.60
2019-06-10T23:00:37.602Z,17.60
2019-06-10T23:03:08.448Z,17.70
2019-06-10T23:05:39.115Z,17.50
2019-06-10T23:08:12.438Z,17.50
2019-06-10T23:10:42.984Z,17.60
2019-06-10T23:13:16.370Z,17.90
2019-06-10T23:15:46.345Z,17.90
2019-06-10T23:18:17.017Z,17.80
2019-06-10T23:20:47.705Z,17.60
2019-06-10T23:23:18.404Z,17.60
2019-06-10T23:25:49.576Z,17.70
2019-06-10T23:28:22.233Z,17.80
2019-06-10T23:30:56.615Z,17.80
2019-06-10T23:33:25.225Z,17.70
2019-06-10T23:35:56.501Z,17.80
2019-06-10T23:38:27.450Z,17.70
2019-06-10T23:40:58.867Z,17.70
2019-06-10T23:43:29.781Z,17.70
2019-06-10T23:46:03.673Z,17.60
2019-06-10T23:48:34.842Z,17.60
2019-06-10T23:51:06.932Z,17.50
2019-06-10T23:53:37.804Z,17.50
2019-06-10T23:56:09.341Z,17.50
2019-06-10T23:58:40.272Z,17.60
